createdAt,value
2022-11-23T00:01:29.919Z,97775.14
2022-11-23T00:04:46.134Z,97769.52
2022-11-23T00:08:02.912Z,97774.18
2022-11-23T00:11:19.802Z,97771.97
2022-11-23T00:14:36.062Z,97778.42
2022-11-23T00:17:54.673Z,97773.48
2022-11-23T00:21:15.719Z,97780.36
2022-11-23T00:24:33.382Z,97770.88
2022-11-23T00:27:51.088Z,97770.77
2022-11-23T00:31:07.787Z,97772.67
2022-11-23T00:34:26.068Z,97766.66
2022-11-23T00:37:42.289Z,97768.98
2022-11-23T00:41:07.910Z,97775.84
2022-11-23T00:44:25.752Z,97775.84
2022-11-23T00:47:42.554Z,97772.94
2022-11-23T00:50:59.106Z,97790.52
2022-11-23T00:54:16.543Z,97792.02
2022-11-23T00:57:32.842Z,97789.98
2022-11-23T01:00:49.336Z,97789.27
2022-11-23T01:04:08.994Z,97793.25
2022-11-23T01:07:25.262Z,97789.42
2022-11-23T01:10:42.345Z,97783.25
2022-11-23T01:14:00.250Z,97775.29
2022-11-23T01:17:16.514Z,97778.84
2022-11-23T01:20:32.637Z,97773.89
2022-11-23T01:23:50.124Z,97773.89
2022-11-23T01:27:06.534Z,97772.82
2022-11-23T01:30:26.113Z,97773.48
2022-11-23T01:33:43.342Z,97766.77
2022-11-23T01:37:00.546Z,97772.94
2022-11-23T01:40:20.552Z,97764.45
2022-11-23T01:43:37.100Z,97767.88
2022-11-23T01:46:53.319Z,97772.28
2022-11-23T01:50:09.950Z,97772.69
2022-11-23T01:53:28.730Z,97775.55
2022-11-23T01:56:50.058Z,97781.45
2022-11-23T02:00:06.881Z,97779.55
2022-11-23T02:03:32.973Z,97782.97
2022-11-23T02:06:51.606Z,97770.08
2022-11-23T02:10:09.402Z,97774.87
2022-11-23T02:13:26.393Z,97771.05
2022-11-23T02:16:44.666Z,97765.97
2022-11-23T02:20:08.451Z,97768.72
2022-11-23T02:23:37.348Z,97759.51
2022-11-23T02:26:54.190Z,97765.27
2022-11-23T02:30:13.695Z,97765.41
2022-11-23T02:33:28.745Z,97763.91
2022-11-23T02:36:53.784Z,97765.56
2022-11-23T02:40:15.710Z,97766.80
2022-11-23T02:43:32.699Z,97768.31
2022-11-23T02:46:49.327Z,97765.84
2022-11-23T02:50:05.870Z,97761.59
2022-11-23T02:53:23.350Z,97761.59
2022-11-23T02:56:42.417Z,97764.75
2022-11-23T03:00:00.551Z,97761.16
2022-11-23T03:03:18.523Z,97764.75
2022-11-23T03:06:34.957Z,97753.48
2022-11-23T03:09:51.512Z,97760.64
2022-11-23T03:13:08.019Z,97756.94
2022-11-23T03:16:24.745Z,97756.79
2022-11-23T03:19:41.458Z,97752.53
2022-11-23T03:22:59.818Z,97758.44
2022-11-23T03:26:16.862Z,97760.20
2022-11-23T03:29:35.629Z,97763.50
2022-11-23T03:32:54.037Z,97764.05
2022-11-23T03:36:13.613Z,97769.52
2022-11-23T03:39:33.850Z,97764.60
2022-11-23T03:42:59.122Z,97760.33
2022-11-23T03:46:15.436Z,97767.05
2022-11-23T03:49:33.682Z,97762.13
2022-11-23T03:52:50.195Z,97756.38
2022-11-23T03:56:06.821Z,97755.82
2022-11-23T03:59:25.275Z,97758.28
2022-11-23T04:02:41.959Z,97759.67
2022-11-23T04:06:00.958Z,97755.82
2022-11-23T04:09:30.281Z,97754.17
2022-11-23T04:12:54.570Z,97753.36
2022-11-23T04:16:12.507Z,97758.97
2022-11-23T04:19:29.293Z,97754.03
2022-11-23T04:22:46.987Z,97752.52
2022-11-23T04:26:03.796Z,97756.35
2022-11-23T04:29:20.961Z,97749.63
2022-11-23T04:32:39.148Z,97758.69
2022-11-23T04:35:55.547Z,97758.95
2022-11-23T04:39:13.251Z,97755.26
2022-11-23T04:42:31.656Z,97749.09
2022-11-23T04:45:50.537Z,97768.02
2022-11-23T04:49:08.604Z,97764.31
2022-11-23T04:52:25.110Z,97763.23
2022-11-23T04:55:41.733Z,97763.37
2022-11-23T04:59:00.191Z,97756.36
2022-11-23T05:02:18.615Z,97759.22
2022-11-23T05:05:49.784Z,97754.59
2022-11-23T05:09:06.945Z,97765.66
2022-11-23T05:12:32.682Z,97763.20
2022-11-23T05:15:51.526Z,97771.70
2022-11-23T05:19:10.988Z,97775.41
2022-11-23T05:22:28.951Z,97776.22
2022-11-23T05:25:45.271Z,97774.00
2022-11-23T05:29:03.134Z,97782.52
2022-11-23T05:32:20.523Z,97773.05
2022-11-23T05:35:36.961Z,97770.30
2022-11-23T05:38:53.168Z,97775.66
2022-11-23T05:42:11.801Z,97767.56
2022-11-23T05:45:29.949Z,97772.78
2022-11-23T05:48:46.806Z,97767.56
2022-11-23T05:52:03.232Z,97773.03
2022-11-23T05:55:21.712Z,97792.48
2022-11-23T05:58:38.081Z,97789.74
2022-11-23T06:01:55.062Z,97790.59
2022-11-23T06:05:14.894Z,97800.30
2022-11-23T06:08:32.942Z,97802.62
2022-11-23T06:11:49.744Z,97808.53
2022-11-23T06:15:08.096Z,97820.84
2022-11-23T06:18:24.621Z,97824.99
2022-11-23T06:21:44.993Z,97821.94
2022-11-23T06:24:59.822Z,97822.78
2022-11-23T06:28:21.402Z,97826.47
2022-11-23T06:31:38.482Z,97829.08
2022-11-23T06:35:00.533Z,97831.11
2022-11-23T06:38:13.329Z,97818.77
2022-11-23T06:41:32.563Z,97825.06
2022-11-23T06:44:47.840Z,97824.25
2022-11-23T06:48:05.810Z,97827.28
2022-11-23T06:51:21.745Z,97824.68
2022-11-23T06:54:39.996Z,97824.43
2022-11-23T06:57:57.476Z,97818.94
2022-11-23T07:01:16.615Z,97828.80
2022-11-23T07:04:35.252Z,97829.75
2022-11-23T07:07:53.461Z,97833.75
2022-11-23T07:11:13.396Z,97827.59
2022-11-23T07:14:29.897Z,97837.17
2022-11-23T07:17:52.027Z,97831.96
2022-11-23T07:21:09.698Z,97831.96
2022-11-23T07:24:27.003Z,97833.48
2022-11-23T07:27:45.161Z,97828.13
2022-11-23T07:31:01.500Z,97823.63
2022-11-23T07:34:19.970Z,97819.22
2022-11-23T07:37:36.840Z,97828.83
2022-11-23T07:40:56.531Z,97826.09
2022-11-23T07:44:15.550Z,97827.59
2022-11-23T07:47:34.055Z,97818.02
2022-11-23T07:50:50.633Z,97831.05
2022-11-23T07:54:07.599Z,97824.60
2022-11-23T07:57:24.044Z,97833.26
2022-11-23T08:00:42.115Z,97826.39
2022-11-23T08:03:58.563Z,97817.35
2022-11-23T08:07:16.650Z,97807.08
2022-11-23T08:10:34.996Z,97818.72
2022-11-23T08:13:53.337Z,97808.86
2022-11-23T08:17:11.161Z,97810.66
2022-11-23T08:20:27.735Z,97813.26
2022-11-23T08:23:44.382Z,97813.12
2022-11-23T08:27:03.810Z,97801.74
2022-11-23T08:30:31.158Z,97809.27
2022-11-23T08:33:48.471Z,97812.16
2022-11-23T08:37:04.892Z,97820.95
2022-11-23T08:40:25.862Z,97819.05
2022-11-23T08:43:43.130Z,97836.75
2022-11-23T08:47:00.863Z,97826.99
2022-11-23T08:50:19.749Z,97820.97
2022-11-23T08:53:40.152Z,97822.19
2022-11-23T08:56:57.118Z,97834.56
2022-11-23T09:00:16.858Z,97832.77
2022-11-23T09:03:33.125Z,97832.48
2022-11-23T09:06:49.561Z,97834.14
2022-11-23T09:10:05.748Z,97832.63
2022-11-23T09:13:22.077Z,97832.38
2022-11-23T09:16:38.417Z,97822.20
2022-11-23T09:19:55.435Z,97810.68
2022-11-23T09:23:14.276Z,97822.50
2022-11-23T09:26:32.698Z,97818.09
2022-11-23T09:29:49.704Z,97821.66
2022-11-23T09:33:06.991Z,97812.74
2022-11-23T09:36:23.740Z,97806.43
2022-11-23T09:39:40.525Z,97801.50
2022-11-23T09:43:31.948Z,97794.50
2022-11-23T09:46:54.731Z,97796.14
2022-11-23T09:50:16.713Z,97789.42
2022-11-23T09:53:38.048Z,97787.37
2022-11-23T09:57:01.399Z,97782.81
2022-11-23T10:00:22.937Z,97789.56
2022-11-23T10:03:48.545Z,97779.25
2022-11-23T10:07:08.525Z,97789.13
2022-11-23T10:10:36.064Z,97780.77
2022-11-23T10:13:57.888Z,97773.64
2022-11-23T10:17:21.345Z,97776.09
2022-11-23T10:20:57.504Z,97773.38
2022-11-23T10:24:25.943Z,97772.68
2022-11-23T10:27:42.557Z,97766.66
2022-11-23T10:31:05.764Z,97766.52
2022-11-23T10:34:25.952Z,97763.50
2022-11-23T10:37:42.934Z,97761.00
2022-11-23T10:41:07.539Z,97760.89
2022-11-23T10:44:35.285Z,97758.95
2022-11-23T10:47:59.631Z,97760.99
2022-11-23T10:51:32.636Z,97761.84
2022-11-23T10:54:55.396Z,97746.86
2022-11-23T10:58:14.129Z,97758.68
2022-11-23T11:01:32.703Z,97755.08
2022-11-23T11:04:53.216Z,97759.64
2022-11-23T11:08:13.730Z,97754.82
2022-11-23T11:11:36.669Z,97755.52
2022-11-23T11:15:12.249Z,97739.42
2022-11-23T11:18:29.603Z,97739.42
2022-11-23T11:21:49.927Z,97743.41
2022-11-23T11:25:06.426Z,97744.08
2022-11-23T11:28:35.294Z,97746.29
2022-11-23T11:32:00.895Z,97739.30
2022-11-23T11:35:26.087Z,97743.43
2022-11-23T11:39:01.431Z,97740.27
2022-11-23T11:42:06.373Z,97747.94
2022-11-23T11:45:28.500Z,97745.48
2022-11-23T11:48:49.358Z,97741.77
2022-11-23T11:52:11.578Z,97742.72
2022-11-23T11:55:32.305Z,97750.13
2022-11-23T11:58:52.820Z,97748.06
2022-11-23T12:02:16.366Z,97742.70
2022-11-23T12:05:38.802Z,97734.19
2022-11-23T12:09:03.118Z,97740.78
2022-11-23T12:12:29.623Z,97751.06
2022-11-23T12:15:50.100Z,97753.38
2022-11-23T12:19:18.294Z,97759.44
2022-11-23T12:22:54.208Z,97754.88
2022-11-23T12:26:26.104Z,97742.80
2022-11-23T12:29:57.418Z,97742.67
2022-11-23T12:33:42.324Z,97731.55
2022-11-23T12:37:43.900Z,97735.81
2022-11-23T12:41:37.224Z,97749.55
2022-11-23T12:48:57.993Z,97756.80
2022-11-23T12:52:27.365Z,97740.03
2022-11-23T12:55:48.982Z,97740.43
2022-11-23T12:59:09.994Z,97744.39
2022-11-23T13:03:09.583Z,97752.60
2022-11-23T13:06:59.328Z,97750.68
2022-11-23T13:10:42.333Z,97764.92
2022-11-23T13:14:19.279Z,97758.59
2022-11-23T13:17:43.845Z,97748.45
2022-11-23T13:21:27.919Z,97760.16
2022-11-23T13:24:47.104Z,97763.97
2022-11-23T13:28:09.002Z,97756.98
2022-11-23T13:31:37.681Z,97758.33
2022-11-23T13:34:55.209Z,97759.82
2022-11-23T13:42:06.781Z,97754.45
2022-11-23T13:45:41.724Z,97764.31
2022-11-23T13:49:01.493Z,97759.48
2022-11-23T13:52:38.328Z,97755.52
2022-11-23T13:55:56.102Z,97759.24
2022-11-23T13:59:37.269Z,97764.47
2022-11-23T14:02:53.551Z,97769.69
2022-11-23T14:06:12.129Z,97779.98
2022-11-23T14:09:34.216Z,97776.17
2022-11-23T14:12:54.656Z,97769.00
2022-11-23T14:16:16.612Z,97766.39
2022-11-23T14:19:38.592Z,97764.77
2022-11-23T14:23:09.366Z,97758.28
2022-11-23T14:26:41.038Z,97760.31
2022-11-23T14:30:47.113Z,97767.46
2022-11-23T14:34:08.130Z,97773.56
2022-11-23T14:37:31.567Z,97774.80
2022-11-23T14:40:59.219Z,97771.77
2022-11-23T14:44:20.154Z,97792.80
2022-11-23T14:47:39.169Z,97779.20
2022-11-23T14:51:04.235Z,97785.54
2022-11-23T14:54:24.060Z,97785.54
2022-11-23T14:57:42.392Z,97786.34
2022-11-23T15:01:06.861Z,97791.88
2022-11-23T15:04:35.828Z,97792.11
2022-11-23T15:07:58.483Z,97803.23
2022-11-23T15:11:18.325Z,97808.47
2022-11-23T15:14:37.086Z,97810.11
2022-11-23T15:18:03.937Z,97809.00
2022-11-23T15:21:28.514Z,97812.72
2022-11-23T15:24:44.968Z,97803.09
2022-11-23T15:28:01.785Z,97800.33
2022-11-23T15:31:38.833Z,97801.17
2022-11-23T15:34:56.852Z,97805.55
2022-11-23T15:38:23.627Z,97802.13
2022-11-23T15:41:41.899Z,97801.17
2022-11-23T15:44:58.600Z,97805.28
2022-11-23T15:48:21.494Z,97798.56
2022-11-23T15:51:44.199Z,97798.70
2022-11-23T15:55:03.290Z,97804.59
2022-11-23T15:58:23.606Z,97807.35
2022-11-23T16:01:40.749Z,97815.19
2022-11-23T16:05:12.584Z,97813.27
2022-11-23T16:08:35.645Z,97808.16
2022-11-23T16:11:53.885Z,97805.85
2022-11-23T16:15:42.870Z,97801.44
2022-11-23T16:19:00.921Z,97807.77
2022-11-23T16:22:27.282Z,97808.73
2022-11-23T16:25:45.704Z,97810.68
2022-11-23T16:29:06.853Z,97818.52
2022-11-23T16:32:36.851Z,97828.81
2022-11-23T16:35:54.643Z,97836.09
2022-11-23T16:39:12.280Z,97836.91
2022-11-23T16:42:36.332Z,97834.75
2022-11-23T16:46:03.165Z,97826.47
2022-11-23T16:49:28.343Z,97827.30
2022-11-23T16:56:10.350Z,97835.28
2022-11-23T16:59:36.594Z,97829.08
2022-11-23T17:02:57.189Z,97835.95
2022-11-23T17:06:22.363Z,97837.59
2022-11-23T17:09:43.567Z,97830.06
2022-11-23T17:13:02.945Z,97836.39
2022-11-23T17:16:26.570Z,97840.36
2022-11-23T17:19:45.290Z,97843.92
2022-11-23T17:23:02.982Z,97853.56
2022-11-23T17:26:32.174Z,97854.37
2022-11-23T17:29:53.588Z,97851.49
2022-11-23T17:33:10.415Z,97859.98
2022-11-23T17:36:27.945Z,97866.05
2022-11-23T17:39:44.755Z,97857.79
2022-11-23T17:43:02.989Z,97852.55
2022-11-23T17:46:28.121Z,97856.14
2022-11-23T17:49:47.079Z,97850.63
2022-11-23T17:53:03.661Z,97848.73
2022-11-23T17:56:29.063Z,97852.15
2022-11-23T17:59:45.435Z,97846.27
2022-11-23T18:03:05.016Z,97845.97
2022-11-23T18:06:25.398Z,97846.78
2022-11-23T18:09:47.573Z,97859.02
2022-11-23T18:13:04.852Z,97850.77
2022-11-23T18:16:23.196Z,97852.00
2022-11-23T18:19:40.562Z,97856.14
2022-11-23T18:22:59.955Z,97841.05
2022-11-23T18:26:26.489Z,97837.75
2022-11-23T18:29:44.007Z,97846.27
2022-11-23T18:33:01.836Z,97854.34
2022-11-23T18:39:42.320Z,97848.73
2022-11-23T18:43:03.364Z,97848.44
2022-11-23T18:46:23.349Z,97835.11
2022-11-23T18:49:41.940Z,97835.77
2022-11-23T18:53:03.762Z,97845.70
2022-11-23T18:56:20.734Z,97847.89
2022-11-23T18:59:57.281Z,97850.50
2022-11-23T19:03:05.702Z,97848.73
2022-11-23T19:06:28.789Z,97849.39
2022-11-23T19:09:44.032Z,97842.13
2022-11-23T19:13:09.350Z,97842.13
2022-11-23T19:16:40.859Z,97837.50
2022-11-23T19:20:06.523Z,97837.50
2022-11-23T19:23:29.639Z,97853.97
2022-11-23T19:26:52.132Z,97858.09
2022-11-23T19:30:10.712Z,97860.45
2022-11-23T19:33:27.755Z,97853.16
2022-11-23T19:36:45.195Z,97861.66
2022-11-23T19:40:02.053Z,97858.09
2022-11-23T19:43:20.261Z,97856.44
2022-11-23T19:46:43.779Z,97852.64
2022-11-23T19:50:07.502Z,97853.58
2022-11-23T19:53:30.518Z,97850.82
2022-11-23T19:56:44.737Z,97863.06
2022-11-23T20:00:02.384Z,97858.95
2022-11-23T20:03:23.047Z,97852.73
2022-11-23T20:06:43.070Z,97862.22
2022-11-23T20:10:01.053Z,97857.30
2022-11-23T20:13:30.760Z,97867.17
2022-11-23T20:16:53.178Z,97866.06
2022-11-23T20:20:14.272Z,97871.69
2022-11-23T20:23:33.850Z,97876.75
2022-11-23T20:26:55.300Z,97870.58
2022-11-23T20:30:15.913Z,97877.45
2022-11-23T20:33:33.886Z,97882.39
2022-11-23T20:36:57.234Z,97877.05
2022-11-23T20:40:18.232Z,97882.94
2022-11-23T20:43:35.805Z,97889.66
2022-11-23T20:47:01.651Z,97889.66
2022-11-23T20:50:15.217Z,97889.39
2022-11-23T20:53:33.257Z,97894.61
2022-11-23T20:56:49.811Z,97899.14
2022-11-23T21:00:07.929Z,97898.33
2022-11-23T21:03:25.192Z,97902.45
2022-11-23T21:13:48.684Z,97900.25
2022-11-23T21:16:56.281Z,97897.09
2022-11-23T21:20:15.625Z,97897.94
2022-11-23T21:23:33.826Z,97903.70
2022-11-23T21:26:50.542Z,97895.33
2022-11-23T21:30:06.955Z,97903.97
2022-11-23T21:33:23.586Z,97895.59
2022-11-23T21:36:41.856Z,97900.55
2022-11-23T21:39:58.298Z,97900.10
2022-11-23T21:43:15.005Z,97904.52
2022-11-23T21:46:32.066Z,97906.16
2022-11-23T21:49:48.446Z,97902.84
2022-11-23T21:53:04.881Z,97904.09
2022-11-23T21:56:23.269Z,97903.95
2022-11-23T21:59:39.642Z,97910.28
2022-11-23T22:02:56.433Z,97909.04
2022-11-23T22:06:20.164Z,97911.39
2022-11-23T22:09:35.027Z,97900.25
2022-11-23T22:12:51.306Z,97905.62
2022-11-23T22:16:09.398Z,97904.27
2022-11-23T22:19:26.492Z,97907.68
2022-11-23T22:22:44.678Z,97909.33
2022-11-23T22:26:00.897Z,97904.38
2022-11-23T22:29:17.640Z,97905.22
2022-11-23T22:32:34.275Z,97898.20
2022-11-23T22:35:50.450Z,97903.16
2022-11-23T22:39:10.287Z,97903.81
2022-11-23T22:42:26.575Z,97899.29
2022-11-23T22:45:43.198Z,97900.31
2022-11-23T22:49:00.840Z,97898.61
2022-11-23T22:52:17.243Z,97895.05
2022-11-23T22:55:33.471Z,97901.50
2022-11-23T22:58:51.364Z,97895.17
2022-11-23T23:02:07.508Z,97892.27
2022-11-23T23:05:24.160Z,97897.48
2022-11-23T23:08:40.884Z,97895.03
2022-11-23T23:11:57.173Z,97900.94
2022-11-23T23:15:14.912Z,97899.53
2022-11-23T23:18:32.775Z,97896.81
2022-11-23T23:21:49.041Z,97894.77
2022-11-23T23:25:07.730Z,97896.12
2022-11-23T23:28:23.213Z,97889.64
2022-11-23T23:31:40.968Z,97889.94
2022-11-23T23:34:57.176Z,97887.17
2022-11-23T23:38:13.325Z,97894.86
2022-11-23T23:41:29.716Z,97890.33
2022-11-23T23:44:45.900Z,97894.86
2022-11-23T23:48:02.402Z,97895.55
2022-11-23T23:51:21.512Z,97894.30
2022-11-23T23:54:38.588Z,97890.48
2022-11-23T23:57:54.748Z,97887.87
